Time;durP1;ratioP1;P1;durP2;ratioP2;P2;SDS_P1;SDS_P2;PMS_P1;PMS_P2;Temp;Humidity;BMP_temperature;BMP_pressure;BME280_temperature;BME280_humidity;BME280_pressure;Samples;Min_cycle;Max_cycle;Signal;HPM_P1;HPM_P2
2021/03/29 00:00:19;;;;;;;2.65;0.57;;;11.90;56.00;;;;;;4993218;28;20042;-81
2021/03/29 00:02:46;;;;;;;3.17;0.73;;;11.90;56.10;;;;;;4977804;28;20045;-80
2021/03/29 00:05:16;;;;;;;0.50;0.30;;;11.80;56.10;;;;;;4977203;28;20050;-79
2021/03/29 00:07:44;;;;;;;2.20;0.57;;;11.80;56.20;;;;;;4993741;28;20030;-80
2021/03/29 00:10:10;;;;;;;2.92;0.85;;;11.80;56.20;;;;;;4993287;28;20490;-80
2021/03/29 00:12:38;;;;;;;2.67;0.55;;;11.80;56.30;;;;;;4960980;28;20052;-79
2021/03/29 00:15:05;;;;;;;4.55;0.95;;;11.70;56.40;;;;;;4993069;28;20510;-79
2021/03/29 00:17:32;;;;;;;1.83;0.30;;;11.70;56.40;;;;;;4992949;28;20042;-79
2021/03/29 00:19:58;;;;;;;2.85;1.13;;;11.70;56.50;;;;;;4993323;28;20046;-80
2021/03/29 00:22:24;;;;;;;1.27;0.43;;;11.60;56.50;;;;;;4977533;28;20037;-80
2021/03/29 00:24:50;;;;;;;0.75;0.43;;;11.60;56.50;;;;;;4972143;28;20035;-80
2021/03/29 00:27:16;;;;;;;1.55;0.57;;;11.60;56.60;;;;;;4993147;28;20030;-80
2021/03/29 00:29:42;;;;;;;3.40;0.98;;;11.50;56.60;;;;;;4993231;28;20395;-81
2021/03/29 00:32:09;;;;;;;0.60;0.25;;;11.50;56.70;;;;;;4992766;28;20114;-79
2021/03/29 00:34:36;;;;;;;1.50;0.47;;;11.40;56.70;;;;;;4978895;28;20033;-79
2021/03/29 00:37:02;;;;;;;0.70;0.43;;;11.40;56.80;;;;;;4992776;28;20046;-80
2021/03/29 00:39:28;;;;;;;1.80;0.60;;;11.30;56.80;;;;;;4959925;28;20514;-80
2021/03/29 00:41:54;;;;;;;2.63;0.77;;;11.30;56.90;;;;;;4992749;28;20030;-80
2021/03/29 00:44:21;;;;;;;1.25;0.43;;;11.20;57.00;;;;;;4992609;28;20042;-80
2021/03/29 00:46:47;;;;;;;1.65;0.90;;;11.20;57.10;;;;;;4992593;28;20029;-80
2021/03/29 00:49:13;;;;;;;1.77;0.68;;;11.10;57.20;;;;;;4993210;28;20037;-79
2021/03/29 00:51:39;;;;;;;1.10;0.20;;;11.10;57.30;;;;;;4992033;28;20447;-79
2021/03/29 00:54:06;;;;;;;1.27;0.30;;;11.00;57.30;;;;;;4992714;28;20030;-79
2021/03/29 00:56:32;;;;;;;1.60;0.77;;;10.90;57.40;;;;;;4973486;28;20039;-80
2021/03/29 00:58:58;;;;;;;2.05;0.50;;;10.80;57.60;;;;;;4982031;28;20042;-80
2021/03/29 01:01:29;;;;;;;3.42;0.80;;;10.70;57.90;;;;;;4976462;28;20038;-79
2021/03/29 01:03:58;;;;;;;0.68;0.40;;;10.60;58.00;;;;;;4992017;28;20039;-80
2021/03/29 01:06:26;;;;;;;13.32;1.20;;;10.60;58.00;;;;;;4989872;28;20034;-80
2021/03/29 01:08:54;;;;;;;0.75;0.40;;;10.50;57.90;;;;;;4992293;28;20034;-80
2021/03/29 01:11:25;;;;;;;1.58;0.52;;;10.50;57.90;;;;;;4976836;28;20399;-79
2021/03/29 01:14:00;;;;;;;;;;;10.50;58.00;;;;;;4977268;28;20050;-80
2021/03/29 01:16:28;;;;;;;8.13;0.95;;;10.50;58.00;;;;;;4960920;28;19913;-79
2021/03/29 01:18:56;;;;;;;1.05;0.57;;;10.50;57.80;;;;;;4991739;28;20033;-79
2021/03/29 01:21:43;;;;;;;1.10;0.40;;;10.50;57.90;;;;;;4994177;28;20046;-79
2021/03/29 01:24:47;;;;;;;1.67;0.90;;;10.50;57.90;;;;;;4993781;28;20034;-79
2021/03/29 01:27:13;;;;;;;1.73;0.68;;;10.40;58.00;;;;;;4993590;28;20487;-79
2021/03/29 01:29:39;;;;;;;1.20;0.35;;;10.40;57.90;;;;;;4992482;28;20022;-79
2021/03/29 01:32:06;;;;;;;1.40;0.60;;;10.40;58.00;;;;;;4992106;28;20046;-79
2021/03/29 01:34:33;;;;;;;1.70;0.80;;;10.40;58.10;;;;;;4993703;28;20041;-79
2021/03/29 01:37:00;;;;;;;3.20;0.70;;;10.40;58.10;;;;;;4991175;28;20034;-79
2021/03/29 01:39:26;;;;;;;1.77;0.55;;;10.40;58.10;;;;;;4976528;28;20057;-80
2021/03/29 01:41:52;;;;;;;9.85;1.20;;;10.40;58.10;;;;;;4973033;28;20061;-80
2021/03/29 01:44:18;;;;;;;0.93;0.30;;;10.40;58.20;;;;;;4984289;28;20484;-79
2021/03/29 01:46:45;;;;;;;0.60;0.30;;;10.40;58.20;;;;;;4992031;28;20527;-81
2021/03/29 01:49:11;;;;;;;1.08;0.55;;;10.30;58.20;;;;;;4993333;28;20426;-81
2021/03/29 01:51:37;;;;;;;1.67;0.60;;;10.30;58.30;;;;;;4976632;28;20029;-81
2021/03/29 01:54:03;;;;;;;2.22;0.90;;;10.20;58.30;;;;;;4997361;28;20049;-79
2021/03/29 01:56:29;;;;;;;1.13;0.47;;;10.20;58.40;;;;;;4976467;28;20034;-81
2021/03/29 01:58:55;;;;;;;1.60;0.82;;;10.20;58.40;;;;;;4985286;28;20042;-80
2021/03/29 02:01:22;;;;;;;17.95;1.20;;;10.20;58.40;;;;;;4995383;28;20049;-80
2021/03/29 02:03:48;;;;;;;1.55;0.40;;;10.20;58.50;;;;;;4973876;28;20026;-79
2021/03/29 02:06:14;;;;;;;0.98;0.30;;;10.10;58.40;;;;;;4981666;28;20490;-79
2021/03/29 02:08:40;;;;;;;1.58;0.70;;;10.10;58.40;;;;;;4972856;28;20043;-80
2021/03/29 02:11:06;;;;;;;0.57;0.30;;;10.10;59.10;;;;;;4969647;28;20053;-81
2021/03/29 02:13:34;;;;;;;1.65;0.73;;;10.10;58.50;;;;;;4974103;28;20031;-81
2021/03/29 02:16:05;;;;;;;1.60;0.65;;;10.10;58.60;;;;;;4975908;28;20038;-80
2021/03/29 02:18:39;;;;;;;0.20;0.05;;;10.00;58.60;;;;;;4961092;28;20050;-81
2021/03/29 02:21:17;;;;;;;1.67;0.50;;;10.00;58.60;;;;;;4973293;28;20046;-79
2021/03/29 02:23:48;;;;;;;0.68;0.25;;;10.00;58.70;;;;;;4975606;28;20463;-79
2021/03/29 02:26:14;;;;;;;;;;;9.90;58.70;;;;;;4974519;28;20031;-79
2021/03/29 02:28:40;;;;;;;1.13;0.70;;;9.80;58.70;;;;;;4990053;28;19933;-79
2021/03/29 02:31:07;;;;;;;7.00;1.02;;;9.80;58.60;;;;;;4991524;28;20049;-79
2021/03/29 02:33:33;;;;;;;2.13;0.77;;;9.80;58.70;;;;;;4974882;28;20471;-79
2021/03/29 02:35:59;;;;;;;2.28;0.68;;;9.70;58.80;;;;;;4972971;28;20041;-82
2021/03/29 02:38:25;;;;;;;3.33;0.43;;;9.70;58.80;;;;;;4995147;28;20026;-79
2021/03/29 02:40:52;;;;;;;1.55;0.52;;;9.70;58.90;;;;;;4995326;28;20038;-79
2021/03/29 02:43:19;;;;;;;1.48;0.73;;;9.60;58.90;;;;;;4995509;28;20038;-79
2021/03/29 02:46:12;;;;;;;3.92;0.88;;;9.60;59.00;;;;;;4961583;28;20380;-80
2021/03/29 02:48:42;;;;;;;0.80;0.28;;;9.60;59.10;;;;;;4975856;28;20045;-79
2021/03/29 02:51:12;;;;;;;1.53;0.63;;;9.60;59.00;;;;;;4995167;28;20022;-79
2021/03/29 02:53:39;;;;;;;3.88;0.77;;;9.60;59.00;;;;;;4995206;28;20387;-79
2021/03/29 02:56:05;;;;;;;0.98;0.35;;;9.60;59.00;;;;;;4996000;28;20030;-80
2021/03/29 02:58:31;;;;;;;4.32;1.10;;;9.50;59.00;;;;;;4995261;28;20041;-79
2021/03/29 03:00:57;;;;;;;2.00;0.75;;;9.50;59.10;;;;;;4993673;28;20045;-79
2021/03/29 03:03:24;;;;;;;1.27;0.57;;;9.50;59.10;;;;;;4961712;28;20491;-79
2021/03/29 03:05:51;;;;;;;1.73;0.52;;;9.50;59.10;;;;;;4994900;28;20030;-79
2021/03/29 03:08:17;;;;;;;1.45;1.00;;;9.50;59.20;;;;;;4994721;28;20033;-79
2021/03/29 03:10:44;;;;;;;3.25;0.70;;;9.50;59.20;;;;;;4994781;28;20035;-79
2021/03/29 03:13:10;;;;;;;2.60;0.82;;;9.40;59.20;;;;;;4994784;28;20027;-79
2021/03/29 03:15:36;;;;;;;1.95;0.63;;;9.40;59.90;;;;;;4994540;28;20403;-79
2021/03/29 03:18:04;;;;;;;1.25;0.43;;;9.40;59.30;;;;;;4994424;28;20026;-79
2021/03/29 03:20:31;;;;;;;4.68;0.65;;;9.40;59.30;;;;;;4994500;28;20042;-79
2021/03/29 03:22:58;;;;;;;0.30;0.20;;;9.40;59.30;;;;;;4995610;28;20030;-79
2021/03/29 03:25:25;;;;;;;2.00;0.73;;;9.30;59.30;;;;;;4994556;28;20029;-79
2021/03/29 03:27:52;;;;;;;2.40;0.73;;;9.30;59.40;;;;;;4993923;28;20030;-79
2021/03/29 03:30:23;;;;;;;2.17;1.23;;;9.20;59.40;;;;;;4976338;28;20049;-79
2021/03/29 03:32:50;;;;;;;1.80;0.77;;;9.20;59.40;;;;;;4974261;28;20037;-80
2021/03/29 03:35:16;;;;;;;2.38;1.00;;;9.20;59.50;;;;;;4994236;28;20037;-79
2021/03/29 03:38:12;;;;;;;2.15;0.50;;;9.20;59.60;;;;;;4994378;28;20502;-79
2021/03/29 03:40:40;;;;;;;1.02;0.30;;;9.10;59.60;;;;;;5011956;28;20050;-79
2021/03/29 03:43:06;;;;;;;1.90;0.98;;;9.00;59.60;;;;;;4993928;28;20026;-79
2021/03/29 03:45:35;;;;;;;0.82;0.52;;;9.00;59.70;;;;;;4992624;28;20046;-80
2021/03/29 03:48:01;;;;;;;0.93;0.30;;;8.90;59.70;;;;;;4994803;28;20034;-79
2021/03/29 03:50:27;;;;;;;0.95;0.32;;;8.90;59.70;;;;;;4994336;28;20047;-79
2021/03/29 03:52:54;;;;;;;1.35;0.60;;;8.80;59.80;;;;;;4994265;28;20030;-79
2021/03/29 03:55:20;;;;;;;0.73;0.20;;;8.70;59.80;;;;;;4993914;28;20026;-79
2021/03/29 03:57:46;;;;;;;1.08;0.52;;;8.60;59.90;;;;;;4976855;28;20050;-79
2021/03/29 04:00:14;;;;;;;4.20;0.73;;;8.60;60.00;;;;;;4993275;28;20042;-79
2021/03/29 04:02:41;;;;;;;17.55;1.02;;;8.60;60.00;;;;;;4993472;28;20026;-79
2021/03/29 04:05:11;;;;;;;0.60;0.30;;;8.60;60.10;;;;;;4977636;28;20064;-79
2021/03/29 04:07:37;;;;;;;1.02;0.40;;;8.50;60.00;;;;;;4993873;28;20030;-79
2021/03/29 04:10:22;;;;;;;0.75;0.50;;;8.50;60.00;;;;;;4993029;28;20041;-79
2021/03/29 04:12:53;;;;;;;4.18;0.77;;;8.60;60.10;;;;;;4975156;28;20054;-80
2021/03/29 04:15:19;;;;;;;1.05;0.30;;;8.50;60.10;;;;;;4994086;28;20022;-80
2021/03/29 04:17:45;;;;;;;1.15;0.50;;;8.50;60.10;;;;;;4993173;28;20041;-80
2021/03/29 04:20:12;;;;;;;0.73;0.22;;;8.50;60.10;;;;;;4961763;28;20065;-80
2021/03/29 04:22:38;;;;;;;0.88;0.30;;;8.40;60.10;;;;;;4993505;28;20022;-79
2021/03/29 04:25:05;;;;;;;2.25;1.10;;;8.50;60.20;;;;;;4994060;28;20475;-80
2021/03/29 04:27:32;;;;;;;2.03;0.38;;;8.40;60.10;;;;;;4976465;28;20498;-80
2021/03/29 04:29:58;;;;;;;3.55;0.88;;;8.40;60.20;;;;;;4993225;28;20030;-80
2021/03/29 04:32:24;;;;;;;4.95;0.80;;;8.40;60.30;;;;;;4976362;28;20395;-80
2021/03/29 04:34:51;;;;;;;0.20;0.08;;;8.40;60.40;;;;;;4993283;28;20375;-80
2021/03/29 04:37:17;;;;;;;6.57;0.85;;;8.30;60.40;;;;;;4993239;28;20030;-80
2021/03/29 04:39:43;;;;;;;2.83;0.82;;;8.20;60.50;;;;;;4992205;28;20711;-80
2021/03/29 04:42:10;;;;;;;0.93;0.60;;;8.20;60.60;;;;;;4994331;28;20042;-81
2021/03/29 04:44:36;;;;;;;2.50;0.98;;;8.20;60.70;;;;;;4973688;28;20065;-78
2021/03/29 04:47:02;;;;;;;1.55;1.17;;;8.10;60.60;;;;;;4966161;28;20047;-79
2021/03/29 04:49:28;;;;;;;2.45;0.38;;;8.10;60.60;;;;;;4976974;28;20046;-78
2021/03/29 04:51:54;;;;;;;0.73;0.40;;;8.10;60.60;;;;;;4992254;28;20418;-82
2021/03/29 04:54:20;;;;;;;1.75;0.77;;;8.10;60.60;;;;;;4992931;28;20034;-79
2021/03/29 04:56:46;;;;;;;0.57;0.28;;;8.20;60.70;;;;;;4973606;28;20480;-81
2021/03/29 04:59:12;;;;;;;1.65;0.40;;;8.20;60.70;;;;;;4984949;28;20483;-81
2021/03/29 05:01:38;;;;;;;1.50;0.60;;;8.20;60.70;;;;;;4993528;28;20043;-81
2021/03/29 05:04:05;;;;;;;2.05;0.98;;;8.20;60.70;;;;;;4992408;28;20030;-81
2021/03/29 05:06:31;;;;;;;2.22;0.32;;;8.20;60.70;;;;;;4993327;28;20049;-81
2021/03/29 05:08:57;;;;;;;2.28;0.40;;;8.20;61.50;;;;;;4992797;28;20042;-81
2021/03/29 05:11:24;;;;;;;1.48;0.60;;;8.20;60.70;;;;;;5010492;28;20034;-80
2021/03/29 05:13:50;;;;;;;2.25;0.43;;;8.10;60.70;;;;;;4993711;28;20037;-81
2021/03/29 05:16:16;;;;;;;2.20;0.50;;;8.10;60.90;;;;;;4993526;28;20415;-81
2021/03/29 05:18:42;;;;;;;3.70;0.80;;;8.00;61.00;;;;;;4991793;28;20030;-81
2021/03/29 05:21:08;;;;;;;1.90;0.80;;;7.90;61.00;;;;;;4993704;28;20050;-82
2021/03/29 05:23:34;;;;;;;1.50;0.80;;;7.90;61.10;;;;;;4992822;28;20030;-78
2021/03/29 05:26:00;;;;;;;5.80;0.47;;;7.80;61.10;;;;;;4993294;28;20395;-81
2021/03/29 05:28:27;;;;;;;2.63;1.02;;;7.80;61.20;;;;;;4997784;28;20030;-80
2021/03/29 05:30:53;;;;;;;2.75;0.90;;;7.80;61.30;;;;;;4996599;28;20431;-80
2021/03/29 05:33:19;;;;;;;4.43;0.95;;;7.80;61.50;;;;;;4996861;28;20038;-80
2021/03/29 05:35:45;;;;;;;0.95;0.32;;;7.70;61.50;;;;;;4997656;28;20368;-80
2021/03/29 05:38:11;;;;;;;4.75;1.02;;;7.70;61.50;;;;;;4996526;28;20026;-80
2021/03/29 05:40:37;;;;;;;4.03;1.13;;;7.70;61.50;;;;;;4996359;28;20369;-80
2021/03/29 05:43:04;;;;;;;0.85;0.55;;;7.60;61.60;;;;;;4996618;28;20026;-80
2021/03/29 05:45:31;;;;;;;0.30;0.10;;;7.70;61.70;;;;;;4979170;28;20042;-81
2021/03/29 05:47:57;;;;;;;0.75;0.43;;;7.60;61.80;;;;;;4977030;28;20503;-80
2021/03/29 05:50:23;;;;;;;0.32;0.20;;;7.60;61.90;;;;;;4988863;28;20475;-80
2021/03/29 05:52:50;;;;;;;1.15;0.22;;;7.50;62.00;;;;;;4996246;28;20029;-80
2021/03/29 05:55:21;;;;;;;0.45;0.17;;;7.50;62.10;;;;;;4980099;28;20046;-80
2021/03/29 05:58:08;;;;;;;3.25;0.22;;;7.40;62.10;;;;;;4996232;28;20026;-80
2021/03/29 06:00:37;;;;;;;1.52;0.30;;;7.40;62.40;;;;;;4994991;28;20046;-80
2021/03/29 06:03:36;;;;;;;2.20;1.38;;;7.40;62.50;;;;;;4997103;28;20030;-80
2021/03/29 06:06:11;;;;;;;0.93;0.75;;;7.30;62.40;;;;;;4993255;28;20041;-80
2021/03/29 06:08:50;;;;;;;1.70;0.57;;;7.40;62.40;;;;;;4997023;28;20503;-80
2021/03/29 06:11:38;;;;;;;1.40;0.73;;;7.40;62.30;;;;;;4979659;28;20051;-80
2021/03/29 06:14:11;;;;;;;0.10;0.00;;;7.40;62.50;;;;;;4979492;28;20046;-80
2021/03/29 06:17:12;;;;;;;2.35;0.90;;;7.30;62.50;;;;;;4996518;28;20042;-80
2021/03/29 06:19:40;;;;;;;3.72;2.00;;;7.30;62.50;;;;;;4982414;28;20030;-80
2021/03/29 06:22:24;;;;;;;4.97;2.38;;;7.30;62.40;;;;;;4995419;28;20039;-80
2021/03/29 06:25:12;;;;;;;1.42;1.33;;;7.30;62.40;;;;;;4991876;28;20510;-80
2021/03/29 06:27:39;;;;;;;13.02;2.03;;;7.40;62.60;;;;;;4992770;28;20038;-80
2021/03/29 06:30:25;;;;;;;1.70;0.95;;;7.40;62.50;;;;;;4995692;28;20030;-80
2021/03/29 06:33:05;;;;;;;3.92;1.88;;;7.40;62.50;;;;;;4995649;28;20026;-80
2021/03/29 06:35:33;;;;;;;0.55;0.52;;;7.50;62.40;;;;;;4995544;28;20030;-80
2021/03/29 06:38:04;;;;;;;0.88;0.30;;;7.70;62.50;;;;;;4995317;28;20026;-80
2021/03/29 06:40:30;;;;;;;2.13;0.95;;;7.90;62.40;;;;;;4996580;28;20026;-80
2021/03/29 06:42:56;;;;;;;1.50;0.90;;;8.10;62.20;;;;;;4994366;28;20042;-80
2021/03/29 06:45:23;;;;;;;0.65;0.60;;;8.40;61.60;;;;;;4978501;28;20047;-81
2021/03/29 06:47:49;;;;;;;2.25;1.45;;;8.60;61.20;;;;;;4996425;28;20018;-81
2021/03/29 06:50:25;;;;;;;1.83;0.63;;;8.80;60.90;;;;;;4995165;28;20031;-80
2021/03/29 06:52:51;;;;;;;2.45;1.25;;;9.10;60.80;;;;;;4979218;28;20042;-80
2021/03/29 06:55:24;;;;;;;3.55;1.60;;;9.20;60.60;;;;;;4994739;28;20031;-80
2021/03/29 06:58:00;;;;;;;1.00;0.60;;;9.50;60.50;;;;;;4990028;28;20030;-81
2021/03/29 07:00:28;;;;;;;4.85;0.70;;;9.70;60.20;;;;;;4994813;28;20034;-80
2021/03/29 07:02:54;;;;;;;0.45;0.30;;;9.90;59.90;;;;;;4975530;28;20241;-80
2021/03/29 07:05:20;;;;;;;1.83;0.68;;;10.10;59.80;;;;;;4987031;28;20041;-80
2021/03/29 07:07:46;;;;;;;3.67;0.68;;;10.30;59.80;;;;;;4978952;28;20030;-81
2021/03/29 07:10:13;;;;;;;1.98;0.70;;;10.40;59.60;;;;;;4994523;28;20037;-80
2021/03/29 07:12:40;;;;;;;15.50;1.30;;;10.50;59.50;;;;;;4994035;28;20041;-80
2021/03/29 07:15:08;;;;;;;3.58;0.80;;;10.70;59.40;;;;;;4994189;28;20037;-80
2021/03/29 07:17:38;;;;;;;0.40;0.20;;;10.90;59.20;;;;;;4994796;28;20376;-81
2021/03/29 07:20:06;;;;;;;0.05;0.00;;;11.10;59.00;;;;;;4976393;28;20042;-81
2021/03/29 07:22:35;;;;;;;0.70;0.32;;;11.20;58.90;;;;;;4994527;28;20030;-80
2021/03/29 07:25:03;;;;;;;0.70;0.50;;;11.30;58.80;;;;;;4993280;28;20042;-81
2021/03/29 07:27:30;;;;;;;1.85;0.80;;;11.40;58.90;;;;;;4994334;28;20502;-80
2021/03/29 07:29:56;;;;;;;0.95;0.45;;;11.40;58.90;;;;;;4995632;28;20022;-81
2021/03/29 07:32:28;;;;;;;1.80;0.40;;;11.50;58.90;;;;;;4995335;28;20038;-82
2021/03/29 07:34:54;;;;;;;2.13;0.45;;;11.60;58.90;;;;;;4994460;28;20022;-81
2021/03/29 07:37:29;;;;;;;0.70;0.30;;;11.80;59.40;;;;;;4977411;28;20042;-81
2021/03/29 07:39:56;;;;;;;2.60;0.45;;;12.00;58.60;;;;;;4990624;28;20026;-82
2021/03/29 07:42:25;;;;;;;0.30;0.20;;;12.20;58.40;;;;;;4977705;28;20106;-81
2021/03/29 07:44:58;;;;;;;0.85;0.47;;;12.40;58.20;;;;;;4995214;28;20073;-82
2021/03/29 07:47:42;;;;;;;1.90;0.30;;;12.50;58.00;;;;;;4993594;28;20506;-81
2021/03/29 07:50:10;;;;;;;5.47;0.52;;;12.70;58.00;;;;;;4993805;28;20399;-81
2021/03/29 07:52:40;;;;;;;3.78;0.50;;;12.80;57.70;;;;;;4994051;28;20030;-82
2021/03/29 07:55:26;;;;;;;1.73;0.57;;;13.10;57.40;;;;;;4993431;28;20034;-81
2021/03/29 07:57:52;;;;;;;1.98;0.52;;;13.40;57.10;;;;;;4990133;28;20056;-82
2021/03/29 08:00:28;;;;;;;0.80;0.40;;;13.60;56.90;;;;;;4994444;28;20034;-82
2021/03/29 08:03:01;;;;;;;0.30;0.10;;;13.70;57.30;;;;;;4995153;28;20034;-82
2021/03/29 08:05:46;;;;;;;1.20;0.32;;;13.90;56.60;;;;;;4993690;28;20031;-84
2021/03/29 08:08:27;;;;;;;16.25;0.50;;;14.10;56.40;;;;;;4993197;28;20042;-81
2021/03/29 08:11:16;;;;;;;2.47;0.50;;;14.20;56.20;;;;;;4994850;28;20033;-81
2021/03/29 08:13:47;;;;;;;0.93;0.68;;;14.30;56.10;;;;;;4980955;28;20495;-82
2021/03/29 08:16:17;;;;;;;1.20;0.50;;;14.50;56.00;;;;;;4994349;28;20031;-81
2021/03/29 08:19:19;;;;;;;0.73;0.30;;;14.60;55.80;;;;;;4961197;28;20042;-82
2021/03/29 08:22:09;;;;;;;4.30;0.68;;;14.90;55.60;;;;;;4993081;28;20049;-82
2021/03/29 08:24:35;;;;;;;2.70;0.22;;;15.10;55.30;;;;;;4991506;28;20038;-81
2021/03/29 08:27:05;;;;;;;2.00;0.47;;;15.20;55.10;;;;;;4994615;28;20399;-82
2021/03/29 08:29:36;;;;;;;0.70;0.22;;;15.30;55.10;;;;;;4993529;28;20026;-81
2021/03/29 08:32:24;;;;;;;0.73;0.20;;;15.40;55.00;;;;;;4992449;28;20046;-82
2021/03/29 08:34:54;;;;;;;0.70;0.35;;;15.50;54.90;;;;;;4979799;28;20053;-81
2021/03/29 08:37:40;;;;;;;0.98;0.40;;;15.70;54.60;;;;;;4990601;28;20018;-81
2021/03/29 08:40:14;;;;;;;2.15;0.20;;;15.70;54.60;;;;;;4989700;28;20034;-82
2021/03/29 08:42:42;;;;;;;1.58;0.60;;;15.70;54.60;;;;;;4979297;28;20041;-82
2021/03/29 08:45:30;;;;;;;2.50;0.45;;;15.70;54.70;;;;;;4969112;28;20541;-81
2021/03/29 08:47:57;;;;;;;0.45;0.20;;;15.80;54.70;;;;;;4985645;28;20034;-82
2021/03/29 08:50:47;;;;;;;4.07;0.60;;;15.90;54.60;;;;;;4986737;28;20289;-82
2021/03/29 08:53:14;;;;;;;0.50;0.17;;;16.20;54.20;;;;;;4985283;28;20034;-81
2021/03/29 08:55:41;;;;;;;1.15;0.40;;;16.60;53.90;;;;;;4973253;28;20395;-81
2021/03/29 08:58:08;;;;;;;4.03;0.45;;;16.90;53.40;;;;;;4972807;28;20035;-81
2021/03/29 09:00:35;;;;;;;0.73;0.32;;;17.10;53.00;;;;;;4959952;28;20038;-81
2021/03/29 09:03:02;;;;;;;1.27;0.38;;;17.20;52.90;;;;;;4977472;28;20053;-81
2021/03/29 09:05:28;;;;;;;0.43;0.10;;;17.30;52.70;;;;;;4964360;28;20038;-81
2021/03/29 09:07:54;;;;;;;0.82;0.35;;;17.40;52.60;;;;;;4971652;28;20423;-82
2021/03/29 09:10:27;;;;;;;6.18;0.30;;;17.60;52.50;;;;;;4974105;28;20038;-81
2021/03/29 09:13:00;;;;;;;1.75;0.47;;;17.80;52.30;;;;;;4989243;28;20026;-82
2021/03/29 09:15:29;;;;;;;0.85;0.40;;;18.00;52.00;;;;;;4990246;28;20042;-82
2021/03/29 09:18:09;;;;;;;2.70;0.70;;;18.20;51.80;;;;;;4990944;28;20035;-83
2021/03/29 09:20:37;;;;;;;3.60;0.55;;;18.50;51.40;;;;;;4993497;28;20387;-84
2021/03/29 09:23:04;;;;;;;0.15;0.10;;;18.80;51.10;;;;;;4974158;28;20099;-82
2021/03/29 09:25:37;;;;;;;1.55;0.40;;;18.80;50.70;;;;;;4992617;28;20023;-82
2021/03/29 09:31:00;;;;;;;1.02;0.45;;;18.80;50.70;;;;;;4989689;28;20503;-82
2021/03/29 09:33:26;;;;;;;0.00;0.00;;;19.00;51.30;;;;;;4990989;28;20023;-82
2021/03/29 09:35:52;;;;;;;1.60;0.20;;;19.20;50.50;;;;;;4959995;28;20502;-82
2021/03/29 09:38:33;;;;;;;0.25;0.05;;;19.50;50.10;;;;;;4976354;28;20049;-82
2021/03/29 09:41:00;;;;;;;;;;;19.60;49.80;;;;;;4992867;28;20034;-81
2021/03/29 09:43:26;;;;;;;0.55;0.20;;;19.70;49.70;;;;;;4974899;28;19921;-82
2021/03/29 09:46:02;;;;;;;0.20;0.10;;;19.90;49.40;;;;;;4981372;28;20034;-82
2021/03/29 09:48:30;;;;;;;0.80;0.20;;;20.00;49.30;;;;;;4992406;28;20044;-81
2021/03/29 09:50:57;;;;;;;1.05;0.57;;;20.40;49.10;;;;;;4972623;28;20400;-82
2021/03/29 09:53:31;;;;;;;1.30;0.10;;;20.60;48.70;;;;;;4984954;28;20030;-81
2021/03/29 09:55:58;;;;;;;0.70;0.20;;;20.70;48.60;;;;;;4976686;28;20030;-81
2021/03/29 09:58:32;;;;;;;1.38;0.15;;;20.80;48.40;;;;;;4992688;28;20037;-81
2021/03/29 10:01:03;;;;;;;2.70;0.50;;;20.80;48.40;;;;;;4988430;28;20042;-81
2021/03/29 10:03:29;;;;;;;1.17;0.35;;;21.00;48.40;;;;;;4993162;28;20037;-82
2021/03/29 10:05:56;;;;;;;2.72;0.30;;;21.00;48.20;;;;;;4972770;28;20039;-82
2021/03/29 10:08:26;;;;;;;1.83;0.25;;;21.10;48.20;;;;;;4968562;28;20118;-81
2021/03/29 10:11:06;;;;;;;0.60;0.22;;;21.10;48.00;;;;;;4992532;28;20037;-81
2021/03/29 10:13:32;;;;;;;4.30;0.32;;;21.30;47.80;;;;;;4962276;28;20033;-82
2021/03/29 10:16:17;;;;;;;0.88;0.40;;;21.40;47.60;;;;;;4995569;28;20030;-81
2021/03/29 10:18:43;;;;;;;0.28;0.10;;;21.70;47.30;;;;;;4979135;28;20498;-82
2021/03/29 10:21:09;;;;;;;0.17;0.05;;;21.90;46.90;;;;;;4995717;28;20042;-82
2021/03/29 10:23:41;;;;;;;0.50;0.40;;;22.20;46.40;;;;;;4995871;28;20042;-82
2021/03/29 10:26:34;;;;;;;2.47;0.30;;;22.50;46.10;;;;;;4996853;28;20030;-81
2021/03/29 10:29:01;;;;;;;0.63;0.10;;;22.70;45.30;;;;;;4995930;28;20030;-82
2021/03/29 10:31:28;;;;;;;1.13;0.20;;;22.60;45.10;;;;;;4995428;28;20060;-82
2021/03/29 10:33:55;;;;;;;0.40;0.10;;;22.60;44.80;;;;;;4994461;28;20046;-82
2021/03/29 10:36:22;;;;;;;0.38;0.10;;;22.60;44.80;;;;;;4997011;28;20026;-82
2021/03/29 10:38:49;;;;;;;0.47;0.00;;;22.70;44.20;;;;;;4976211;28;20035;-81
2021/03/29 10:41:15;;;;;;;0.68;0.15;;;22.70;44.20;;;;;;4986675;28;20041;-82
2021/03/29 10:43:41;;;;;;;0.00;0.00;;;22.90;44.20;;;;;;4979446;28;20038;-82
2021/03/29 10:46:07;;;;;;;0.73;0.20;;;23.00;43.80;;;;;;4994637;28;20049;-81
2021/03/29 10:48:34;;;;;;;0.40;0.10;;;23.20;43.40;;;;;;4994001;28;20479;-82
2021/03/29 10:51:00;;;;;;;0.40;0.03;;;23.40;43.20;;;;;;4976092;28;20388;-82
2021/03/29 10:53:26;;;;;;;0.00;0.00;;;23.50;42.30;;;;;;4988270;28;20026;-84
2021/03/29 10:55:52;;;;;;;0.30;0.00;;;23.50;42.10;;;;;;4996226;28;20027;-82
2021/03/29 10:58:19;;;;;;;1.98;0.28;;;23.50;42.10;;;;;;4995364;28;20479;-82
2021/03/29 11:00:45;;;;;;;0.85;0.10;;;23.70;41.90;;;;;;4995316;28;20038;-82
2021/03/29 11:03:11;;;;;;;0.40;0.10;;;23.80;41.80;;;;;;4994451;28;20038;-82
2021/03/29 11:05:37;;;;;;;0.20;0.10;;;24.00;41.40;;;;;;4996152;28;20476;-82
2021/03/29 11:08:03;;;;;;;0.15;0.00;;;24.10;40.90;;;;;;4994863;28;20039;-82
2021/03/29 11:10:29;;;;;;;0.55;0.10;;;24.00;40.70;;;;;;4996132;28;20034;-82
2021/03/29 11:12:55;;;;;;;0.20;0.10;;;24.00;40.70;;;;;;4993935;28;20501;-83
2021/03/29 11:15:22;;;;;;;0.10;0.00;;;24.00;40.10;;;;;;4995590;28;20030;-83
2021/03/29 11:17:48;;;;;;;0.77;0.35;;;23.90;40.20;;;;;;4994468;28;20026;-82
2021/03/29 11:20:14;;;;;;;2.78;0.20;;;23.90;39.40;;;;;;4978800;28;20045;-82
2021/03/29 11:22:40;;;;;;;2.53;0.20;;;23.80;39.10;;;;;;4995852;28;20045;-82
2021/03/29 11:25:06;;;;;;;1.05;0.32;;;23.80;39.20;;;;;;4993535;28;20383;-82
2021/03/29 11:27:33;;;;;;;0.75;0.30;;;23.80;39.00;;;;;;4995173;28;20038;-83
2021/03/29 11:29:59;;;;;;;0.35;0.20;;;24.00;39.10;;;;;;4994455;28;20022;-81
2021/03/29 11:32:25;;;;;;;0.10;0.00;;;24.10;38.70;;;;;;4994955;28;20427;-82
2021/03/29 11:34:52;;;;;;;1.73;0.20;;;24.30;38.30;;;;;;4994390;28;20023;-82
2021/03/29 11:37:18;;;;;;;1.10;0.20;;;24.30;38.10;;;;;;4994492;28;20054;-82
2021/03/29 11:39:44;;;;;;;0.05;0.00;;;24.30;37.80;;;;;;4993550;28;20030;-82
2021/03/29 11:42:10;;;;;;;0.00;0.00;;;24.30;37.70;;;;;;4994230;28;20042;-82
2021/03/29 11:44:36;;;;;;;1.70;0.10;;;24.30;37.80;;;;;;4993985;28;20039;-83
2021/03/29 11:47:02;;;;;;;0.43;0.10;;;24.40;37.70;;;;;;4994632;28;20039;-82
2021/03/29 11:49:28;;;;;;;1.10;0.20;;;24.60;37.50;;;;;;4995342;28;20025;-82
2021/03/29 11:51:55;;;;;;;0.10;0.00;;;24.70;37.30;;;;;;4977348;28;20364;-82
2021/03/29 11:54:21;;;;;;;0.10;0.00;;;24.80;37.10;;;;;;4995428;28;20026;-82
2021/03/29 11:56:47;;;;;;;1.55;0.28;;;24.90;37.00;;;;;;4993916;28;20034;-81
2021/03/29 11:59:13;;;;;;;0.30;0.10;;;25.00;37.00;;;;;;4978038;28;20049;-82
2021/03/29 12:01:47;;;;;;;0.65;0.10;;;25.10;36.60;;;;;;4993243;28;20026;-82
2021/03/29 12:09:27;;;;;;;0.32;0.00;;;25.00;35.90;;;;;;4993956;28;20038;-82
2021/03/29 12:12:00;;;;;;;0.30;0.10;;;25.00;35.70;;;;;;4993694;28;20033;-82
2021/03/29 12:14:45;;;;;;;0.57;0.15;;;25.00;35.80;;;;;;4993146;28;20060;-82
2021/03/29 12:17:13;;;;;;;0.40;0.00;;;25.20;35.70;;;;;;4993164;28;20035;-83
2021/03/29 12:19:40;;;;;;;0.00;0.00;;;25.20;35.50;;;;;;4993670;28;20023;-81
2021/03/29 12:22:16;;;;;;;0.30;0.10;;;25.20;35.00;;;;;;4993418;28;20049;-83
2021/03/29 12:24:44;;;;;;;0.35;0.15;;;25.20;35.20;;;;;;4991628;28;20414;-84
2021/03/29 12:27:10;;;;;;;1.70;0.25;;;25.30;35.20;;;;;;4977273;28;20034;-83
2021/03/29 12:29:41;;;;;;;1.10;0.10;;;25.30;34.90;;;;;;4993102;28;20041;-84
2021/03/29 12:32:11;;;;;;;;;;;25.40;34.80;;;;;;4993333;28;20046;-84
2021/03/29 12:34:41;;;;;;;1.90;0.10;;;25.50;34.80;;;;;;4993489;28;19914;-83
2021/03/29 12:37:07;;;;;;;0.32;0.00;;;25.70;34.90;;;;;;4993351;28;20501;-82
2021/03/29 12:39:42;;;;;;;0.63;0.10;;;25.80;34.80;;;;;;4992346;28;20034;-85
2021/03/29 12:42:11;;;;;;;0.20;0.00;;;25.80;34.60;;;;;;4994444;28;20054;-83
2021/03/29 12:44:37;;;;;;;1.75;0.20;;;26.00;34.60;;;;;;4993746;28;20480;-82
2021/03/29 12:47:06;;;;;;;0.40;0.10;;;25.90;33.90;;;;;;4992582;28;20049;-82
2021/03/29 12:49:32;;;;;;;0.05;0.00;;;25.80;34.00;;;;;;4993137;28;20030;-83
2021/03/29 12:51:59;;;;;;;1.15;0.03;;;25.80;34.10;;;;;;4993172;28;20026;-84
2021/03/29 12:54:27;;;;;;;0.45;0.03;;;25.80;34.10;;;;;;4993052;28;20034;-80
2021/03/29 12:56:54;;;;;;;0.10;0.00;;;25.60;33.30;;;;;;4993075;28;20025;-81
2021/03/29 12:59:21;;;;;;;0.10;0.00;;;25.50;33.60;;;;;;4992710;28;20053;-80
2021/03/29 13:01:48;;;;;;;0.00;0.00;;;25.50;33.70;;;;;;4976364;28;20046;-81
2021/03/29 13:04:22;;;;;;;0.00;0.00;;;25.60;33.30;;;;;;4992826;28;20483;-80
2021/03/29 13:09:37;;;;;;;0.20;0.00;;;25.50;33.10;;;;;;5000862;28;20030;-80
2021/03/29 13:12:03;;;;;;;0.00;0.00;;;25.50;32.70;;;;;;4992832;28;20034;-81